Time;durP1;ratioP1;P1;durP2;ratioP2;P2;SDS_P1;SDS_P2;PMS_P1;PMS_P2;Temp;Humidity;BMP_temperature;BMP_pressure;BME280_temperature;BME280_humidity;BME280_pressure;Samples;Min_cycle;Max_cycle;Signal;HPM_P1;HPM_P2
2024/01/15 00:01:23;;;;;;;;;;;;;;;2.43;57.05;97903.75;4408600;32;33513;-88
2024/01/15 00:03:51;;;;;;;;;;;;;;;2.46;57.16;97902.06;4409335;32;32864;-87
2024/01/15 00:06:18;;;;;;;;;;;;;;;2.43;57.38;97900.34;4419241;32;33370;-89
2024/01/15 00:08:45;;;;;;;;;;;;;;;2.25;57.90;97893.06;4423642;32;34386;-90
2024/01/15 00:11:13;;;;;;;;;;;;;;;2.37;57.61;97888.25;4405083;32;34014;-87
2024/01/15 00:13:40;;;;;;;;;;;;;;;2.56;57.29;97875.91;4442729;32;34672;-90
2024/01/15 00:16:07;;;;;;;;;;;;;;;2.48;57.38;97877.41;4388817;32;32646;-91
2024/01/15 00:18:35;;;;;;;;;;;;;;;2.12;58.11;97865.44;4397252;32;33061;-87
2024/01/15 00:21:03;;;;;;;;;;;;;;;1.72;59.19;97863.56;4407329;32;32697;-87
2024/01/15 00:23:30;;;;;;;;;;;;;;;2.31;57.64;97847.19;4398287;32;33057;-87
2024/01/15 00:25:57;;;;;;;;;;;;;;;2.01;58.37;97846.41;4385324;32;32743;-86
2024/01/15 00:28:25;;;;;;;;;;;;;;;1.97;58.40;97845.50;4401475;32;33804;-89
2024/01/15 00:30:52;;;;;;;;;;;;;;;2.20;57.90;97833.28;4399247;32;33879;-88
2024/01/15 00:33:20;;;;;;;;;;;;;;;2.39;57.51;97825.22;4406829;32;32910;-87
2024/01/15 00:35:47;;;;;;;;;;;;;;;2.39;57.69;97826.91;4394700;32;33681;-86
2024/01/15 00:38:14;;;;;;;;;;;;;;;2.37;57.81;97821.75;4407950;32;33633;-88
2024/01/15 00:40:42;;;;;;;;;;;;;;;2.42;57.57;97815.06;4431868;32;35164;-87
2024/01/15 00:43:09;;;;;;;;;;;;;;;2.48;57.39;97828.81;4423727;32;33607;-88
2024/01/15 00:45:36;;;;;;;;;;;;;;;2.34;58.00;97826.78;4393874;32;34114;-86
2024/01/15 00:48:04;;;;;;;;;;;;;;;2.39;58.02;97824.34;4419384;32;34084;-87
2024/01/15 00:50:32;;;;;;;;;;;;;;;2.36;58.14;97814.91;4403067;32;34665;-89
2024/01/15 00:52:59;;;;;;;;;;;;;;;2.12;59.03;97807.53;4435766;32;33142;-88
2024/01/15 00:55:27;;;;;;;;;;;;;;;2.18;58.91;97805.09;4415921;32;33031;-88
2024/01/15 00:57:55;;;;;;;;;;;;;;;2.43;58.06;97821.91;4399217;32;33871;-88
2024/01/15 01:00:22;;;;;;;;;;;;;;;2.40;57.94;97819.25;4430771;32;34390;-89
2024/01/15 01:02:51;;;;;;;;;;;;;;;2.17;58.69;97807.63;4409914;32;33153;-88
2024/01/15 01:05:18;;;;;;;;;;;;;;;2.35;58.25;97810.62;4420820;32;34087;-89
2024/01/15 01:07:45;;;;;;;;;;;;;;;2.49;57.82;97808.38;4410692;32;34644;-87
2024/01/15 01:10:13;;;;;;;;;;;;;;;2.40;57.87;97805.63;4410364;32;33531;-88
2024/01/15 01:12:40;;;;;;;;;;;;;;;2.44;57.68;97813.37;4409779;32;32667;-88
2024/01/15 01:15:07;;;;;;;;;;;;;;;2.21;58.16;97812.00;4408738;32;33702;-89
2024/01/15 01:17:35;;;;;;;;;;;;;;;2.31;58.23;97807.94;4415546;32;33946;-89
2024/01/15 01:20:06;;;;;;;;;;;;;;;2.38;58.07;97797.87;4417742;32;34390;-88
2024/01/15 01:22:33;;;;;;;;;;;;;;;2.25;58.20;97793.34;4410728;32;33873;-88
2024/01/15 01:25:01;;;;;;;;;;;;;;;2.44;57.70;97795.50;4407709;32;32705;-88
2024/01/15 01:27:28;;;;;;;;;;;;;;;2.30;57.86;97789.19;4409304;32;33032;-88
2024/01/15 01:29:55;;;;;;;;;;;;;;;2.15;58.30;97783.72;4409143;32;34188;-90
2024/01/15 01:32:23;;;;;;;;;;;;;;;2.29;57.95;97786.59;4406471;32;33519;-89
2024/01/15 01:34:50;;;;;;;;;;;;;;;2.19;57.90;97777.84;4402240;32;34004;-89
2024/01/15 01:37:18;;;;;;;;;;;;;;;2.17;58.17;97777.81;4394961;32;33521;-88
2024/01/15 01:39:45;;;;;;;;;;;;;;;2.16;57.79;97771.00;4407334;32;33073;-89
2024/01/15 01:42:12;;;;;;;;;;;;;;;2.06;57.86;97769.03;4434821;32;32473;-89
2024/01/15 01:44:40;;;;;;;;;;;;;;;2.03;58.04;97753.63;4426712;32;34601;-88
2024/01/15 01:47:07;;;;;;;;;;;;;;;1.85;58.63;97753.19;4421882;32;33263;-89
2024/01/15 01:49:35;;;;;;;;;;;;;;;1.08;60.45;97771.62;4421955;32;33223;-88
2024/01/15 01:52:04;;;;;;;;;;;;;;;1.38;59.86;97747.75;4416452;32;34016;-88
2024/01/15 01:54:32;;;;;;;;;;;;;;;1.38;59.63;97746.06;4435661;32;33948;-89
2024/01/15 01:56:59;;;;;;;;;;;;;;;1.55;58.99;97727.72;4420391;32;33699;-88
2024/01/15 01:59:26;;;;;;;;;;;;;;;0.92;60.52;97741.41;4408411;32;33784;-87
2024/01/15 02:01:54;;;;;;;;;;;;;;;1.25;59.61;97738.03;4420970;32;33422;-88
2024/01/15 02:04:22;;;;;;;;;;;;;;;0.97;60.25;97755.16;4422525;32;33573;-89
2024/01/15 02:06:49;;;;;;;;;;;;;;;1.18;59.57;97730.22;4414674;32;34815;-88
2024/01/15 02:09:20;;;;;;;;;;;;;;;1.30;59.24;97731.38;4412235;32;33633;-89
2024/01/15 02:11:48;;;;;;;;;;;;;;;1.12;59.66;97721.53;4420744;32;32500;-89
2024/01/15 02:14:15;;;;;;;;;;;;;;;1.17;59.62;97725.91;4432900;32;34111;-89
2024/01/15 02:16:42;;;;;;;;;;;;;;;1.25;59.45;97736.38;4434542;32;34881;-89
2024/01/15 02:19:16;;;;;;;;;;;;;;;1.31;59.32;97722.87;4433203;32;34844;-88
2024/01/15 02:21:44;;;;;;;;;;;;;;;1.00;60.60;97733.97;4421385;32;33733;-89
2024/01/15 02:24:12;;;;;;;;;;;;;;;1.24;59.99;97723.53;4421809;32;34174;-88
2024/01/15 02:26:39;;;;;;;;;;;;;;;1.21;59.98;97717.56;4418157;32;34339;-88
2024/01/15 02:29:07;;;;;;;;;;;;;;;1.36;59.45;97705.97;4415155;32;33810;-86
2024/01/15 02:31:38;;;;;;;;;;;;;;;1.18;59.47;97706.41;4404488;32;32786;-88
2024/01/15 02:34:06;;;;;;;;;;;;;;;1.31;59.30;97710.12;4420387;32;32953;-88
2024/01/15 02:36:33;;;;;;;;;;;;;;;1.06;59.82;97706.94;4420277;32;34248;-88
2024/01/15 02:39:01;;;;;;;;;;;;;;;1.21;59.61;97696.22;4431215;32;34577;-89
2024/01/15 02:41:28;;;;;;;;;;;;;;;1.29;59.36;97693.88;4429424;32;34200;-89
2024/01/15 02:43:55;;;;;;;;;;;;;;;1.14;59.81;97692.69;4425657;32;33564;-89
2024/01/15 02:46:23;;;;;;;;;;;;;;;1.27;59.26;97685.34;4421195;32;33741;-88
2024/01/15 02:48:50;;;;;;;;;;;;;;;1.27;59.06;97675.97;4407296;32;33769;-88
2024/01/15 02:51:17;;;;;;;;;;;;;;;1.03;59.51;97689.00;4419973;32;33223;-89
2024/01/15 02:53:45;;;;;;;;;;;;;;;0.89;59.95;97720.91;4408287;32;34977;-86
2024/01/15 02:56:12;;;;;;;;;;;;;;;0.94;60.18;97716.78;4420133;32;33989;-87
2024/01/15 02:58:40;;;;;;;;;;;;;;;1.04;60.03;97703.47;4411869;32;33483;-88
2024/01/15 03:01:07;;;;;;;;;;;;;;;0.99;60.41;97686.31;4409591;32;33196;-89
2024/01/15 03:03:34;;;;;;;;;;;;;;;1.23;59.76;97681.84;4409344;32;34070;-88
2024/01/15 03:06:02;;;;;;;;;;;;;;;1.32;59.04;97679.50;4409629;32;33458;-87
2024/01/15 03:08:30;;;;;;;;;;;;;;;1.20;59.02;97663.88;4408821;32;33588;-88
2024/01/15 03:10:57;;;;;;;;;;;;;;;1.20;58.99;97661.34;4418090;32;33013;-88
2024/01/15 03:13:25;;;;;;;;;;;;;;;1.08;59.26;97653.37;4424658;32;34215;-92
2024/01/15 03:15:52;;;;;;;;;;;;;;;1.17;59.08;97664.66;4420917;32;33901;-91
2024/01/15 03:18:20;;;;;;;;;;;;;;;1.14;59.07;97659.50;4418924;32;33430;-92
2024/01/15 03:20:47;;;;;;;;;;;;;;;1.11;59.24;97644.09;4409150;32;33317;-89
2024/01/15 03:23:14;;;;;;;;;;;;;;;1.19;58.69;97647.72;4416831;32;32937;-88
2024/01/15 03:25:42;;;;;;;;;;;;;;;1.15;58.13;97635.69;4396145;32;34585;-89
2024/01/15 03:28:09;;;;;;;;;;;;;;;1.10;58.27;97638.94;4421412;32;35165;-89
2024/01/15 03:30:37;;;;;;;;;;;;;;;1.18;57.86;97629.81;4421366;32;32925;-88
2024/01/15 03:33:04;;;;;;;;;;;;;;;1.07;57.92;97633.78;4420915;32;33004;-88
2024/01/15 03:35:31;;;;;;;;;;;;;;;0.95;58.26;97647.97;4420142;32;34135;-89
2024/01/15 03:37:59;;;;;;;;;;;;;;;0.79;59.12;97644.94;4421233;32;33511;-89
2024/01/15 03:40:26;;;;;;;;;;;;;;;0.91;58.96;97679.31;4433488;32;34314;-89
2024/01/15 03:42:54;;;;;;;;;;;;;;;0.62;60.00;97662.38;4408473;32;33578;-89
2024/01/15 03:45:21;;;;;;;;;;;;;;;0.87;59.79;97658.75;4419757;32;34564;-89
2024/01/15 03:47:48;;;;;;;;;;;;;;;0.65;60.40;97655.66;4419906;32;33962;-88
2024/01/15 03:50:16;;;;;;;;;;;;;;;0.73;60.20;97681.38;4408117;32;33034;-89
2024/01/15 03:52:43;;;;;;;;;;;;;;;0.44;61.16;97681.41;4421453;32;33653;-88
2024/01/15 03:55:11;;;;;;;;;;;;;;;0.39;61.57;97677.88;4397022;32;34717;-89
2024/01/15 03:57:38;;;;;;;;;;;;;;;0.67;60.96;97660.78;4419616;32;33748;-89
2024/01/15 04:00:06;;;;;;;;;;;;;;;0.77;60.74;97672.12;4407921;32;33978;-88
2024/01/15 04:02:34;;;;;;;;;;;;;;;0.76;60.08;97663.59;4433605;32;33705;-89
2024/01/15 04:05:01;;;;;;;;;;;;;;;0.16;61.76;97668.72;4420837;32;33385;-88
2024/01/15 04:07:28;;;;;;;;;;;;;;;0.52;60.58;97673.97;4407751;32;34103;-88
2024/01/15 04:09:56;;;;;;;;;;;;;;;0.21;61.23;97651.84;4395961;32;32985;-89
2024/01/15 04:12:24;;;;;;;;;;;;;;;0.47;60.73;97657.69;4405132;32;34009;-88
2024/01/15 04:14:51;;;;;;;;;;;;;;;0.21;60.91;97654.41;4408194;32;33454;-89
2024/01/15 04:17:18;;;;;;;;;;;;;;;0.34;60.59;97643.75;4418725;32;33214;-89
2024/01/15 04:19:47;;;;;;;;;;;;;;;0.43;60.16;97631.25;4433080;32;33458;-89
2024/01/15 04:22:15;;;;;;;;;;;;;;;0.36;60.03;97621.69;4395967;32;34061;-89
2024/01/15 04:24:43;;;;;;;;;;;;;;;0.42;59.72;97644.84;4420903;32;33510;-89
2024/01/15 04:27:32;;;;;;;;;;;;;;;0.39;59.73;97639.63;4419951;32;33650;-89
2024/01/15 04:30:01;;;;;;;;;;;;;;;0.50;59.54;97639.09;4418134;32;32985;-89
2024/01/15 04:32:29;;;;;;;;;;;;;;;0.42;59.92;97632.09;4419460;32;34163;-88
2024/01/15 04:34:56;;;;;;;;;;;;;;;0.35;60.33;97632.72;4428408;32;34788;-88
2024/01/15 04:37:24;;;;;;;;;;;;;;;0.52;59.96;97630.63;4407409;32;33595;-88
2024/01/15 04:39:54;;;;;;;;;;;;;;;0.10;61.16;97630.28;4433636;32;33867;-89
2024/01/15 04:42:22;;;;;;;;;;;;;;;0.36;60.69;97619.16;4384396;32;33277;-88
2024/01/15 04:44:49;;;;;;;;;;;;;;;0.11;61.09;97612.50;4418738;32;33506;-89
2024/01/15 04:47:16;;;;;;;;;;;;;;;0.37;60.40;97618.31;4399796;32;34822;-88
2024/01/15 04:49:44;;;;;;;;;;;;;;;0.19;60.69;97610.16;4434075;32;33884;-89
2024/01/15 04:52:12;;;;;;;;;;;;;;;0.16;60.86;97627.94;4421146;32;33134;-88
2024/01/15 04:54:39;;;;;;;;;;;;;;;0.54;60.07;97633.25;4419187;32;33226;-87
2024/01/15 04:57:07;;;;;;;;;;;;;;;-0.07;61.30;97632.38;4425845;32;34253;-88
2024/01/15 04:59:34;;;;;;;;;;;;;;;0.00;61.86;97626.62;4408925;32;33549;-88
2024/01/15 05:02:01;;;;;;;;;;;;;;;0.10;61.20;97631.16;4420756;32;33141;-89
2024/01/15 05:04:29;;;;;;;;;;;;;;;0.32;60.92;97631.78;4407468;32;33867;-89
2024/01/15 05:06:56;;;;;;;;;;;;;;;0.27;61.08;97633.34;4396676;32;33587;-87
2024/01/15 05:09:24;;;;;;;;;;;;;;;0.21;61.71;97632.31;4423339;32;33409;-88
2024/01/15 05:11:51;;;;;;;;;;;;;;;0.27;61.77;97634.22;4421482;32;33747;-88
2024/01/15 05:14:18;;;;;;;;;;;;;;;0.44;61.13;97637.22;4409825;32;34204;-89
2024/01/15 05:16:49;;;;;;;;;;;;;;;0.12;62.05;97629.53;4421264;32;34282;-88
2024/01/15 05:19:16;;;;;;;;;;;;;;;0.30;61.69;97639.38;4423191;32;33924;-89
2024/01/15 05:21:44;;;;;;;;;;;;;;;0.40;61.37;97651.56;4410106;32;33893;-88
2024/01/15 05:24:11;;;;;;;;;;;;;;;0.26;61.65;97636.69;4409856;32;33325;-88
2024/01/15 05:26:39;;;;;;;;;;;;;;;0.22;61.61;97630.63;4409169;32;34226;-89
2024/01/15 05:29:06;;;;;;;;;;;;;;;0.30;61.37;97644.47;4436366;32;33557;-90
2024/01/15 05:31:33;;;;;;;;;;;;;;;0.28;61.47;97640.16;4423012;32;34775;-89
2024/01/15 05:34:01;;;;;;;;;;;;;;;0.44;60.74;97645.72;4435117;32;34949;-88
2024/01/15 05:36:28;;;;;;;;;;;;;;;0.38;60.61;97642.12;4427396;32;32549;-87
2024/01/15 05:38:56;;;;;;;;;;;;;;;0.28;60.83;97641.03;4420990;32;32543;-88
2024/01/15 05:41:23;;;;;;;;;;;;;;;-0.09;61.93;97634.00;4434325;32;33922;-89
2024/01/15 05:43:50;;;;;;;;;;;;;;;0.22;61.00;97634.03;4408570;32;34522;-88
2024/01/15 05:46:17;;;;;;;;;;;;;;;0.26;60.74;97632.44;4392528;32;790380;-88
2024/01/15 05:48:45;;;;;;;;;;;;;;;0.29;60.56;97640.19;4400103;32;32898;-87
2024/01/15 05:51:13;;;;;;;;;;;;;;;0.27;60.55;97641.84;4404610;32;33024;-88
2024/01/15 05:53:42;;;;;;;;;;;;;;;0.21;60.51;97654.41;4406532;32;33300;-87
2024/01/15 05:56:10;;;;;;;;;;;;;;;0.11;61.31;97647.31;4405861;32;33517;-88
2024/01/15 05:58:37;;;;;;;;;;;;;;;0.18;61.82;97644.97;4404389;32;33374;-88
2024/01/15 06:01:04;;;;;;;;;;;;;;;0.31;61.48;97646.22;4405476;32;32788;-89
2024/01/15 06:03:32;;;;;;;;;;;;;;;0.39;61.18;97644.75;4418377;32;34269;-91
2024/01/15 06:05:59;;;;;;;;;;;;;;;0.68;60.18;97626.81;4405289;32;33500;-87
2024/01/15 06:08:27;;;;;;;;;;;;;;;0.35;60.49;97627.62;4416356;32;32810;-89
2024/01/15 06:10:56;;;;;;;;;;;;;;;-0.07;61.67;97617.94;4392094;32;32945;-89
2024/01/15 06:13:27;;;;;;;;;;;;;;;0.14;61.16;97632.09;4410020;32;33972;-89
2024/01/15 06:15:54;;;;;;;;;;;;;;;0.42;60.63;97639.72;4407388;32;34578;-89
2024/01/15 06:18:22;;;;;;;;;;;;;;;0.58;59.99;97625.72;4420147;32;33463;-88
2024/01/15 06:20:49;;;;;;;;;;;;;;;0.52;60.21;97637.41;4419524;32;34025;-90
2024/01/15 06:23:16;;;;;;;;;;;;;;;0.38;60.72;97648.13;4405708;32;33691;-88
2024/01/15 06:25:47;;;;;;;;;;;;;;;0.37;60.91;97651.47;4408194;32;34277;-88
2024/01/15 06:28:15;;;;;;;;;;;;;;;0.52;60.90;97645.06;4419902;32;33617;-88
2024/01/15 06:30:42;;;;;;;;;;;;;;;0.38;61.27;97642.12;4407489;32;33171;-88
2024/01/15 06:33:09;;;;;;;;;;;;;;;0.44;61.45;97648.28;4407364;32;33708;-88
2024/01/15 06:35:37;;;;;;;;;;;;;;;0.54;61.30;97654.50;4420086;32;34157;-88
2024/01/15 06:38:04;;;;;;;;;;;;;;;0.52;61.66;97640.84;4394358;32;32486;-88
2024/01/15 06:40:32;;;;;;;;;;;;;;;0.69;61.37;97643.84;4419842;32;34163;-88
2024/01/15 06:42:59;;;;;;;;;;;;;;;0.69;61.67;97649.81;4419747;32;33889;-89
2024/01/15 06:45:26;;;;;;;;;;;;;;;0.68;62.04;97653.19;4422825;32;34426;-89
2024/01/15 06:47:53;;;;;;;;;;;;;;;0.65;62.43;97654.81;4419637;32;33176;-89
2024/01/15 06:50:21;;;;;;;;;;;;;;;0.92;61.95;97647.88;4417895;32;33766;-88
2024/01/15 06:52:48;;;;;;;;;;;;;;;1.08;61.67;97653.37;4420546;32;33568;-88
2024/01/15 06:55:17;;;;;;;;;;;;;;;1.12;61.47;97653.47;4421939;32;34224;-88
2024/01/15 06:57:44;;;;;;;;;;;;;;;1.14;61.52;97649.28;4420171;32;32330;-88
2024/01/15 07:00:12;;;;;;;;;;;;;;;1.19;61.29;97664.72;4420212;32;34708;-88
2024/01/15 07:02:39;;;;;;;;;;;;;;;1.10;61.59;97655.16;4432991;32;34403;-88
2024/01/15 07:05:06;;;;;;;;;;;;;;;1.20;61.47;97648.56;4432892;32;34951;-88
2024/01/15 07:07:34;;;;;;;;;;;;;;;1.05;61.65;97649.03;4433112;32;33562;-88
2024/01/15 07:10:01;;;;;;;;;;;;;;;0.54;63.54;97657.06;4432931;32;33658;-88
2024/01/15 07:12:29;;;;;;;;;;;;;;;1.07;62.16;97657.62;4407373;32;33301;-88
2024/01/15 07:14:56;;;;;;;;;;;;;;;0.98;62.61;97665.00;4420136;32;33288;-88
2024/01/15 07:17:24;;;;;;;;;;;;;;;0.93;63.09;97667.44;4432776;32;34265;-88
2024/01/15 07:19:51;;;;;;;;;;;;;;;0.97;63.16;97676.91;4419921;32;33349;-88
2024/01/15 07:22:19;;;;;;;;;;;;;;;0.80;63.63;97678.19;4419078;32;33853;-88
2024/01/15 07:24:47;;;;;;;;;;;;;;;0.81;64.29;97669.69;4419961;32;33522;-88
2024/01/15 07:27:14;;;;;;;;;;;;;;;0.98;64.40;97672.66;4420735;32;33757;-89
2024/01/15 07:29:42;;;;;;;;;;;;;;;0.81;64.78;97679.88;4421167;32;34240;-88
2024/01/15 07:32:10;;;;;;;;;;;;;;;0.92;64.59;97685.28;4421137;32;34232;-88
2024/01/15 07:34:37;;;;;;;;;;;;;;;0.67;65.28;97687.16;4421193;32;33784;-88
2024/01/15 07:37:04;;;;;;;;;;;;;;;0.48;66.06;97687.47;4421104;32;33354;-88
2024/01/15 07:39:32;;;;;;;;;;;;;;;0.83;65.12;97687.56;4419842;32;34116;-88
2024/01/15 07:42:00;;;;;;;;;;;;;;;0.76;65.08;97684.00;4420854;32;34268;-89
2024/01/15 07:44:27;;;;;;;;;;;;;;;1.04;64.30;97687.28;4420869;32;34278;-88
2024/01/15 07:46:54;;;;;;;;;;;;;;;0.96;64.94;97692.19;4435640;32;33380;-88
2024/01/15 07:49:23;;;;;;;;;;;;;;;0.94;64.71;97689.59;4436227;32;34140;-88
2024/01/15 07:51:50;;;;;;;;;;;;;;;1.01;64.61;97684.66;4436437;32;34030;-88
2024/01/15 07:54:18;;;;;;;;;;;;;;;1.04;64.32;97682.19;4436300;32;34142;-88
2024/01/15 07:56:55;;;;;;;;;;;;;;;1.14;63.96;97679.06;4435901;32;34217;-88
2024/01/15 07:59:23;;;;;;;;;;;;;;;0.62;65.18;97686.19;4436193;32;33579;-88
2024/01/15 08:01:51;;;;;;;;;;;;;;;0.69;65.48;97699.97;4436224;32;34803;-88
2024/01/15 08:04:19;;;;;;;;;;;;;;;0.91;65.32;97692.09;4422163;32;34188;-89
2024/01/15 08:06:46;;;;;;;;;;;;;;;0.90;65.02;97697.97;4422315;32;33470;-88
2024/01/15 08:09:13;;;;;;;;;;;;;;;0.88;65.07;97694.53;4435802;32;34877;-88
2024/01/15 08:11:42;;;;;;;;;;;;;;;0.79;65.63;97699.37;4434671;32;34531;-88
2024/01/15 08:14:09;;;;;;;;;;;;;;;0.24;66.99;97710.56;4422033;32;33888;-88
2024/01/15 08:16:37;;;;;;;;;;;;;;;0.68;65.50;97706.75;4421917;32;33668;-88
2024/01/15 08:19:05;;;;;;;;;;;;;;;0.85;65.23;97712.31;4421832;32;33744;-88
2024/01/15 08:21:33;;;;;;;;;;;;;;;1.35;63.38;97689.81;4421878;32;34036;-88
2024/01/15 08:24:00;;;;;;;;;;;;;;;0.91;64.10;97701.41;4435541;32;34874;-88
2024/01/15 08:26:28;;;;;;;;;;;;;;;0.82;64.42;97696.91;4422001;32;33409;-88
2024/01/15 08:28:55;;;;;;;;;;;;;;;1.25;63.04;97690.41;4435567;32;33488;-89
2024/01/15 08:31:22;;;;;;;;;;;;;;;0.97;63.51;97697.31;4435624;32;35088;-88
2024/01/15 08:33:50;;;;;;;;;;;;;;;1.52;62.09;97713.22;4423266;32;34761;-88
2024/01/15 08:36:18;;;;;;;;;;;;;;;1.13;62.78;97705.38;4423641;32;34331;-88
2024/01/15 08:38:45;;;;;;;;;;;;;;;1.57;61.41;97698.00;4423335;32;34089;-88
2024/01/15 08:41:13;;;;;;;;;;;;;;;1.15;62.18;97696.09;4437806;32;35084;-88
2024/01/15 08:43:40;;;;;;;;;;;;;;;1.41;61.92;97695.06;4437518;32;34277;-88
2024/01/15 08:46:07;;;;;;;;;;;;;;;1.15;62.67;97703.75;4437362;32;34191;-88
2024/01/15 08:48:35;;;;;;;;;;;;;;;1.69;60.73;97691.50;4437577;32;34613;-88
2024/01/15 08:51:02;;;;;;;;;;;;;;;2.03;59.91;97693.97;4437589;32;33969;-88
2024/01/15 08:53:29;;;;;;;;;;;;;;;1.62;60.42;97698.97;4423368;32;33380;-88
2024/01/15 08:55:57;;;;;;;;;;;;;;;1.90;59.55;97701.38;4437572;32;34367;-88
2024/01/15 08:58:25;;;;;;;;;;;;;;;1.89;59.74;97704.72;4437452;32;34770;-88
2024/01/15 09:00:52;;;;;;;;;;;;;;;1.61;60.46;97703.22;4423534;32;34220;-88
2024/01/15 09:03:20;;;;;;;;;;;;;;;2.07;59.36;97704.28;4437423;32;33935;-89
2024/01/15 09:05:49;;;;;;;;;;;;;;;1.93;59.24;97696.31;4437567;32;32859;-88
2024/01/15 09:08:17;;;;;;;;;;;;;;;2.07;58.81;97708.53;4437139;32;34910;-88
2024/01/15 09:10:45;;;;;;;;;;;;;;;2.20;57.77;97713.13;4437540;32;34389;-88
2024/01/15 09:13:13;;;;;;;;;;;;;;;2.54;56.76;97717.25;4437345;32;34133;-88
2024/01/15 09:15:40;;;;;;;;;;;;;;;2.06;58.30;97711.94;4437236;32;33029;-88
2024/01/15 09:18:07;;;;;;;;;;;;;;;2.10;58.32;97700.94;4437223;32;33902;-88
2024/01/15 09:20:35;;;;;;;;;;;;;;;2.61;57.12;97702.88;4423405;32;35189;-88
2024/01/15 09:23:02;;;;;;;;;;;;;;;2.59;57.48;97704.56;4423062;32;34272;-88
2024/01/15 09:25:30;;;;;;;;;;;;;;;2.87;56.55;97704.25;4437320;32;34283;-88
2024/01/15 09:27:58;;;;;;;;;;;;;;;2.77;56.89;97704.94;4437426;32;34701;-88
2024/01/15 09:30:25;;;;;;;;;;;;;;;2.79;56.47;97698.13;4422819;32;35111;-88
2024/01/15 09:32:53;;;;;;;;;;;;;;;2.44;57.54;97698.28;4423028;32;33515;-88
2024/01/15 09:35:20;;;;;;;;;;;;;;;2.61;56.55;97700.31;4437027;32;33409;-88
2024/01/15 09:37:50;;;;;;;;;;;;;;;2.73;55.75;97692.91;4436964;32;34067;-88
2024/01/15 09:40:18;;;;;;;;;;;;;;;2.89;55.72;97694.94;4437197;32;35150;-88
2024/01/15 09:42:45;;;;;;;;;;;;;;;3.09;55.21;97687.62;4410562;32;33518;-88
2024/01/15 09:45:13;;;;;;;;;;;;;;;2.67;56.11;97685.09;4422301;32;33030;-88
2024/01/15 09:47:41;;;;;;;;;;;;;;;3.14;54.50;97670.66;4423163;32;34004;-88
2024/01/15 09:50:12;;;;;;;;;;;;;;;3.18;54.46;97671.56;4423985;32;33936;-88
2024/01/15 09:52:40;;;;;;;;;;;;;;;2.79;55.46;97667.44;4422851;32;34460;-88
2024/01/15 09:55:07;;;;;;;;;;;;;;;2.77;56.19;97658.88;4423197;32;33329;-89
2024/01/15 09:57:35;;;;;;;;;;;;;;;2.63;55.96;97661.16;4437267;32;34167;-89
2024/01/15 10:00:06;;;;;;;;;;;;;;;2.96;55.96;97654.09;4423001;32;34584;-88
2024/01/15 10:02:34;;;;;;;;;;;;;;;3.07;55.16;97647.44;4423638;32;34788;-88
2024/01/15 10:05:02;;;;;;;;;;;;;;;3.31;55.03;97647.91;4423098;32;33198;-88
2024/01/15 10:07:30;;;;;;;;;;;;;;;2.91;55.56;97641.19;4423267;32;33768;-89
2024/01/15 10:09:57;;;;;;;;;;;;;;;3.13;55.43;97642.44;4423037;32;35083;-89
2024/01/15 10:12:27;;;;;;;;;;;;;;;3.38;55.09;97643.75;4410383;32;33129;-88
2024/01/15 10:14:55;;;;;;;;;;;;;;;3.02;55.85;97641.41;4436991;32;33317;-88
2024/01/15 10:17:23;;;;;;;;;;;;;;;3.55;53.81;97637.16;4437201;32;33796;-88
2024/01/15 10:19:51;;;;;;;;;;;;;;;3.15;53.84;97633.97;4436553;32;34184;-88
2024/01/15 10:22:18;;;;;;;;;;;;;;;3.40;53.69;97619.00;4437019;32;34759;-88
2024/01/15 10:24:49;;;;;;;;;;;;;;;3.65;52.60;97622.81;4423072;32;34267;-88
2024/01/15 10:27:16;;;;;;;;;;;;;;;3.99;52.53;97613.06;4436708;32;34540;-88
2024/01/15 10:29:44;;;;;;;;;;;;;;;3.62;51.91;97617.63;4422941;32;35214;-88
2024/01/15 10:32:11;;;;;;;;;;;;;;;3.90;51.20;97609.53;4436872;32;35147;-89
2024/01/15 10:34:45;;;;;;;;;;;;;;;4.38;49.56;97602.44;4422718;32;33224;-88
2024/01/15 10:37:13;;;;;;;;;;;;;;;4.50;49.81;97606.84;4423026;32;33284;-88
2024/01/15 10:39:40;;;;;;;;;;;;;;;4.63;49.29;97603.59;4422849;32;35081;-89
2024/01/15 10:42:08;;;;;;;;;;;;;;;4.41;49.05;97606.75;4436662;32;33584;-88
2024/01/15 10:44:35;;;;;;;;;;;;;;;4.27;49.37;97615.13;4436631;32;33545;-88
2024/01/15 10:47:03;;;;;;;;;;;;;;;4.13;49.69;97606.41;4436716;32;34888;-88
2024/01/15 10:49:30;;;;;;;;;;;;;;;4.38;49.82;97600.72;4422369;32;35201;-88
2024/01/15 10:52:03;;;;;;;;;;;;;;;4.79;47.97;97594.34;4422655;32;33769;-88
2024/01/15 10:54:31;;;;;;;;;;;;;;;4.83;47.84;97596.94;4436652;32;33628;-88
2024/01/15 10:56:59;;;;;;;;;;;;;;;4.67;47.52;97592.50;4421518;32;34800;-89
2024/01/15 10:59:26;;;;;;;;;;;;;;;4.78;47.65;97593.47;4422627;32;34276;-89
2024/01/15 11:01:53;;;;;;;;;;;;;;;4.36;49.38;97597.28;4436571;32;34980;-88
2024/01/15 11:04:23;;;;;;;;;;;;;;;4.68;48.13;97601.06;4409929;32;32445;-89
2024/01/15 11:06:53;;;;;;;;;;;;;;;4.78;47.90;97598.63;4436615;32;35017;-89
2024/01/15 11:09:21;;;;;;;;;;;;;;;5.02;47.49;97602.25;4422939;32;34858;-88
2024/01/15 11:11:49;;;;;;;;;;;;;;;4.69;48.34;97588.22;4436345;32;34394;-88
2024/01/15 11:14:43;;;;;;;;;;;;;;;4.61;48.47;97600.13;4422904;32;34341;-89
2024/01/15 11:17:12;;;;;;;;;;;;;;;4.62;48.49;97594.13;4435051;32;34925;-89
2024/01/15 11:19:51;;;;;;;;;;;;;;;4.46;48.68;97594.81;4422584;32;34586;-89
2024/01/15 11:22:29;;;;;;;;;;;;;;;4.72;48.60;97588.28;4423095;32;34206;-88
2024/01/15 11:24:56;;;;;;;;;;;;;;;4.13;49.21;97601.28;4435371;32;33540;-88
2024/01/15 11:27:41;;;;;;;;;;;;;;;4.50;49.35;97599.13;4422262;32;34833;-89
2024/01/15 11:30:10;;;;;;;;;;;;;;;4.28;49.18;97601.47;4422595;32;34045;-88
2024/01/15 11:32:41;;;;;;;;;;;;;;;4.51;48.73;97598.28;4436147;32;34009;-89
2024/01/15 11:35:09;;;;;;;;;;;;;;;4.45;48.83;97593.09;4436441;32;33549;-89
2024/01/15 11:38:01;;;;;;;;;;;;;;;4.12;49.26;97589.28;4422700;32;34677;-89
2024/01/15 11:40:35;;;;;;;;;;;;;;;4.65;48.42;97578.78;4432412;32;34830;-89
2024/01/15 11:43:02;;;;;;;;;;;;;;;4.64;48.53;97584.75;4436169;32;34215;-89
2024/01/15 11:45:30;;;;;;;;;;;;;;;4.38;49.29;97580.19;4409450;32;32308;-88
2024/01/15 11:48:14;;;;;;;;;;;;;;;4.13;49.61;97573.06;4436142;32;33747;-89
2024/01/15 11:50:43;;;;;;;;;;;;;;;4.35;49.60;97567.31;4435023;32;35321;-89
2024/01/15 11:53:34;;;;;;;;;;;;;;;4.58;48.91;97548.75;4434952;32;35038;-84
2024/01/15 11:56:02;;;;;;;;;;;;;;;4.75;48.28;97541.25;4432850;32;34105;-89
2024/01/15 11:58:29;;;;;;;;;;;;;;;4.37;48.88;97528.88;4436141;32;34462;-88
2024/01/15 12:00:57;;;;;;;;;;;;;;;4.56;48.76;97542.75;4434557;32;35157;-88
2024/01/15 12:03:24;;;;;;;;;;;;;;;4.61;48.81;97538.53;4422054;32;33755;-88
2024/01/15 12:05:52;;;;;;;;;;;;;;;4.70;48.23;97543.78;4436089;32;34248;-88
2024/01/15 12:08:23;;;;;;;;;;;;;;;4.63;48.69;97541.97;4435596;32;34802;-88
2024/01/15 12:10:51;;;;;;;;;;;;;;;4.42;49.35;97547.72;4436707;32;33773;-88
2024/01/15 12:13:18;;;;;;;;;;;;;;;5.02;47.61;97536.34;4437848;32;34994;-89
2024/01/15 12:15:46;;;;;;;;;;;;;;;4.85;48.08;97533.63;4436107;32;33624;-88
2024/01/15 12:18:15;;;;;;;;;;;;;;;4.58;48.56;97529.13;4438115;32;34160;-88
2024/01/15 12:20:43;;;;;;;;;;;;;;;4.38;48.20;97531.44;4436397;32;34699;-89
2024/01/15 12:23:11;;;;;;;;;;;;;;;4.76;46.85;97533.53;4437502;32;34153;-88
2024/01/15 12:25:38;;;;;;;;;;;;;;;4.83;46.35;97526.75;4437885;32;33978;-88
2024/01/15 12:28:06;;;;;;;;;;;;;;;4.43;47.54;97523.78;4436406;32;34313;-88
2024/01/15 12:30:33;;;;;;;;;;;;;;;4.06;48.36;97512.28;4436172;32;34783;-89
2024/01/15 12:33:06;;;;;;;;;;;;;;;4.38;47.55;97502.38;4436382;32;34267;-88
2024/01/15 12:35:34;;;;;;;;;;;;;;;4.31;48.14;97495.44;4436413;32;33860;-89
2024/01/15 12:38:04;;;;;;;;;;;;;;;4.70;47.06;97497.56;4437649;32;34805;-88
2024/01/15 12:40:34;;;;;;;;;;;;;;;4.46;47.55;97505.88;4436240;32;35111;-88
2024/01/15 12:43:02;;;;;;;;;;;;;;;4.56;47.56;97499.13;4437506;32;34184;-89
2024/01/15 12:45:29;;;;;;;;;;;;;;;4.68;47.33;97496.69;4443493;32;33165;-88
2024/01/15 12:47:57;;;;;;;;;;;;;;;4.67;47.27;97500.09;4453092;32;33954;-88
2024/01/15 12:50:28;;;;;;;;;;;;;;;4.21;48.14;97486.81;4452872;32;34459;-89
2024/01/15 12:52:55;;;;;;;;;;;;;;;4.32;47.88;97495.47;4453025;32;35187;-88
2024/01/15 12:55:22;;;;;;;;;;;;;;;4.20;48.69;97495.31;4452949;32;33697;-88
2024/01/15 12:57:52;;;;;;;;;;;;;;;4.51;47.55;97505.91;4451691;32;34824;-88
2024/01/15 13:00:20;;;;;;;;;;;;;;;4.70;47.32;97497.56;4452891;32;33962;-88
2024/01/15 13:02:47;;;;;;;;;;;;;;;4.24;48.65;97491.94;4439255;32;34013;-88